createdAt,value
2018-08-18T00:00:26.098Z,17.20
2018-08-18T00:03:00.261Z,17.20
2018-08-18T00:05:34.543Z,17.20
2018-08-18T00:08:09.245Z,17.10
2018-08-18T00:10:43.527Z,17.10
2018-08-18T00:13:17.909Z,17.10
2018-08-18T00:15:52.287Z,17.10
2018-08-18T00:18:26.671Z,17.00
2018-08-18T00:21:00.952Z,16.90
2018-08-18T00:23:35.190Z,16.90
2018-08-18T00:26:09.393Z,16.90
2018-08-18T00:28:43.704Z,16.90
2018-08-18T00:31:18.182Z,16.80
2018-08-18T00:33:52.410Z,16.80
2018-08-18T00:36:26.712Z,16.70
2018-08-18T00:39:01.378Z,16.70
2018-08-18T00:41:36.038Z,16.70
2018-08-18T00:44:11.134Z,16.70
2018-08-18T00:46:45.443Z,16.70
2018-08-18T00:49:19.790Z,16.70
2018-08-18T00:51:54.090Z,16.70
2018-08-18T00:54:28.385Z,16.60
2018-08-18T00:57:08.063Z,16.60
2018-08-18T00:59:42.284Z,16.60
2018-08-18T01:02:16.573Z,16.50
2018-08-18T01:04:57.961Z,16.50
2018-08-18T01:07:32.790Z,16.50
2018-08-18T01:10:07.017Z,16.40
2018-08-18T01:12:41.349Z,16.40
2018-08-18T01:15:22.886Z,16.40
2018-08-18T01:17:57.346Z,16.20
2018-08-18T01:20:31.555Z,16.30
2018-08-18T01:23:05.847Z,16.30
2018-08-18T01:25:40.075Z,16.20
2018-08-18T01:28:14.466Z,16.20
2018-08-18T01:31:03.179Z,16.20
2018-08-18T01:33:38.290Z,16.10
2018-08-18T01:36:12.600Z,16.10
2018-08-18T01:38:46.904Z,16.20
2018-08-18T01:41:24.821Z,16.10
2018-08-18T01:44:13.898Z,16.10
2018-08-18T01:46:49.486Z,16.10
2018-08-18T01:49:31.818Z,16.00
2018-08-18T01:52:13.714Z,16.00
2018-08-18T01:54:48.003Z,16.00
2018-08-18T01:57:22.990Z,16.00
2018-08-18T01:59:57.159Z,16.00
2018-08-18T02:02:31.418Z,16.00
2018-08-18T02:05:16.124Z,15.90
2018-08-18T02:07:50.401Z,15.90
2018-08-18T02:10:24.810Z,15.80
2018-08-18T02:13:01.299Z,15.80
2018-08-18T02:15:35.454Z,15.80
2018-08-18T02:18:09.774Z,15.80
2018-08-18T02:20:44.170Z,15.70
2018-08-18T02:23:18.326Z,15.70
2018-08-18T02:25:52.728Z,15.70
2018-08-18T02:28:28.014Z,15.70
2018-08-18T02:31:02.426Z,15.70
2018-08-18T02:33:36.672Z,15.60
2018-08-18T02:36:10.998Z,15.50
2018-08-18T02:38:50.814Z,15.60
2018-08-18T02:41:26.258Z,15.50
2018-08-18T02:44:01.077Z,15.50
2018-08-18T02:46:37.671Z,15.50
2018-08-18T02:49:11.965Z,15.50
2018-08-18T02:51:46.319Z,15.40
2018-08-18T02:54:21.735Z,15.40
2018-08-18T02:56:56.042Z,15.40
2018-08-18T02:59:30.334Z,15.40
2018-08-18T03:02:04.798Z,15.30
2018-08-18T03:04:44.326Z,15.30
2018-08-18T03:07:18.485Z,15.30
2018-08-18T03:09:53.284Z,15.20
2018-08-18T03:12:33.000Z,15.10
2018-08-18T03:15:07.685Z,15.20
2018-08-18T03:17:42.269Z,15.10
2018-08-18T03:20:16.696Z,15.20
2018-08-18T03:22:50.915Z,15.10
2018-08-18T03:25:37.102Z,14.90
2018-08-18T03:28:11.290Z,15.00
2018-08-18T03:30:45.542Z,14.90
2018-08-18T03:33:20.012Z,14.90
2018-08-18T03:35:54.256Z,14.90
2018-08-18T03:38:28.668Z,14.80
2018-08-18T03:41:02.973Z,14.90
2018-08-18T03:43:37.326Z,14.80
2018-08-18T03:46:11.668Z,14.80
2018-08-18T03:48:46.184Z,14.70
2018-08-18T03:51:23.131Z,14.70
2018-08-18T03:53:57.440Z,14.80
2018-08-18T03:56:31.710Z,14.70
2018-08-18T03:59:06.150Z,14.70
2018-08-18T04:01:48.758Z,14.70
2018-08-18T04:04:23.949Z,14.60
2018-08-18T04:06:59.038Z,14.60
2018-08-18T04:09:34.432Z,14.60
2018-08-18T04:12:09.999Z,14.60
2018-08-18T04:14:44.390Z,14.40
2018-08-18T04:17:28.709Z,14.50
2018-08-18T04:20:02.951Z,14.50
2018-08-18T04:22:37.228Z,14.50
2018-08-18T04:25:11.569Z,14.50
2018-08-18T04:27:47.070Z,14.50
2018-08-18T04:30:22.085Z,14.50
2018-08-18T04:32:58.770Z,14.50
2018-08-18T04:35:33.594Z,14.50
2018-08-18T04:38:07.811Z,14.40
2018-08-18T04:40:42.038Z,14.50
2018-08-18T04:43:16.386Z,14.40
2018-08-18T04:45:50.698Z,14.50
2018-08-18T04:48:29.710Z,14.50
2018-08-18T04:51:04.070Z,14.50
2018-08-18T04:53:38.388Z,14.50
2018-08-18T04:56:12.704Z,14.60
2018-08-18T04:58:46.996Z,14.60
2018-08-18T05:01:21.294Z,14.70
2018-08-18T05:04:03.010Z,14.70
2018-08-18T05:06:37.362Z,14.70
2018-08-18T05:09:13.117Z,14.70
2018-08-18T05:11:47.414Z,14.80
2018-08-18T05:14:21.533Z,14.80
2018-08-18T05:16:55.670Z,14.90
2018-08-18T05:19:29.989Z,14.90
2018-08-18T05:22:04.274Z,14.90
2018-08-18T05:24:38.514Z,15.00
2018-08-18T05:27:18.241Z,15.10
2018-08-18T05:29:52.418Z,15.10
2018-08-18T05:32:26.597Z,15.30
2018-08-18T05:35:00.870Z,15.40
2018-08-18T05:37:35.159Z,15.50
2018-08-18T05:40:09.478Z,15.60
2018-08-18T05:42:43.794Z,15.60
2018-08-18T05:45:25.006Z,15.70
2018-08-18T05:47:59.316Z,15.80
2018-08-18T05:50:33.686Z,15.90
2018-08-18T05:53:17.878Z,16.00
2018-08-18T05:55:52.273Z,16.00
2018-08-18T05:58:26.709Z,16.00
2018-08-18T06:01:07.344Z,16.10
2018-08-18T06:03:41.582Z,16.20
2018-08-18T06:06:15.891Z,16.30
2018-08-18T06:08:50.274Z,16.40
2018-08-18T06:11:24.697Z,16.40
2018-08-18T06:13:58.965Z,16.50
2018-08-18T06:16:33.403Z,16.60
2018-08-18T06:19:07.542Z,16.60
2018-08-18T06:21:41.774Z,16.70
2018-08-18T06:24:16.050Z,16.80
2018-08-18T06:26:50.389Z,16.90
2018-08-18T06:29:24.745Z,16.90
2018-08-18T06:32:01.153Z,17.00
2018-08-18T06:34:35.627Z,17.10
2018-08-18T06:37:09.745Z,17.20
2018-08-18T06:39:53.182Z,17.20
2018-08-18T06:42:43.173Z,17.40
2018-08-18T06:45:18.905Z,17.40
2018-08-18T06:47:57.546Z,17.50
2018-08-18T06:50:37.119Z,17.60
2018-08-18T06:53:11.349Z,17.70
2018-08-18T06:55:45.650Z,17.80
2018-08-18T06:58:19.946Z,17.90
2018-08-18T07:00:54.247Z,18.00
2018-08-18T07:03:38.210Z,18.00
2018-08-18T07:06:13.106Z,18.10
2018-08-18T07:08:54.317Z,18.20
2018-08-18T07:11:28.629Z,18.30
2018-08-18T07:14:02.898Z,18.40
2018-08-18T07:16:37.093Z,18.50
2018-08-18T07:19:11.458Z,18.60
2018-08-18T07:21:45.782Z,18.60
2018-08-18T07:24:20.082Z,18.70
2018-08-18T07:26:54.381Z,18.70
2018-08-18T07:29:34.455Z,18.90
2018-08-18T07:32:08.769Z,19.00
2018-08-18T07:34:43.074Z,19.10
2018-08-18T07:37:17.395Z,19.10
2018-08-18T07:39:51.639Z,19.20
2018-08-18T07:42:26.077Z,19.20
2018-08-18T07:45:00.462Z,19.30
2018-08-18T07:47:35.635Z,19.40
2018-08-18T07:50:09.946Z,19.40
2018-08-18T07:52:44.367Z,19.60
2018-08-18T07:55:18.654Z,19.60
2018-08-18T07:57:57.805Z,19.60
2018-08-18T08:00:33.241Z,19.70
2018-08-18T08:03:08.826Z,19.70
2018-08-18T08:05:43.539Z,19.90
2018-08-18T08:08:17.929Z,20.00
2018-08-18T08:10:53.985Z,20.00
2018-08-18T08:13:28.310Z,20.10
2018-08-18T08:16:02.478Z,20.20
2018-08-18T08:18:36.770Z,20.30
2018-08-18T08:21:11.170Z,20.40
2018-08-18T08:23:45.489Z,20.30
2018-08-18T08:26:19.777Z,20.40
2018-08-18T08:28:54.123Z,20.50
2018-08-18T08:31:28.543Z,20.60
2018-08-18T08:34:02.866Z,20.80
2018-08-18T08:36:37.042Z,20.90
2018-08-18T08:39:11.314Z,20.90
2018-08-18T08:41:45.605Z,21.00
2018-08-18T08:44:20.018Z,21.10
2018-08-18T08:47:12.549Z,21.20
2018-08-18T08:49:46.766Z,21.30
2018-08-18T08:52:21.106Z,21.30
2018-08-18T08:54:55.393Z,21.50
2018-08-18T08:57:29.686Z,21.50
2018-08-18T09:00:04.420Z,21.60
2018-08-18T09:02:38.566Z,21.70
2018-08-18T09:05:12.871Z,21.70
2018-08-18T09:07:47.258Z,21.70
2018-08-18T09:10:21.672Z,21.70
2018-08-18T09:12:55.958Z,21.80
2018-08-18T09:15:30.196Z,22.00
2018-08-18T09:18:04.582Z,22.10
2018-08-18T09:20:45.152Z,22.10
2018-08-18T09:23:19.469Z,22.00
2018-08-18T09:25:53.850Z,22.10
2018-08-18T09:28:28.378Z,22.10
2018-08-18T09:31:02.566Z,22.20
2018-08-18T09:33:36.828Z,22.30
2018-08-18T09:36:11.148Z,22.50
2018-08-18T09:38:45.553Z,22.60
2018-08-18T09:41:19.862Z,22.60
2018-08-18T09:43:54.242Z,22.60
2018-08-18T09:46:28.544Z,22.80
2018-08-18T09:49:02.847Z,22.70
2018-08-18T09:51:37.222Z,22.70
2018-08-18T09:54:11.566Z,22.80
2018-08-18T09:56:45.861Z,22.80
2018-08-18T09:59:20.100Z,22.80
2018-08-18T10:01:54.668Z,22.80
2018-08-18T10:04:28.933Z,22.80
2018-08-18T10:07:03.348Z,23.10
2018-08-18T10:09:40.281Z,23.20
2018-08-18T10:12:14.570Z,23.30
2018-08-18T10:14:49.033Z,23.20
2018-08-18T10:17:23.447Z,23.20
2018-08-18T10:19:58.302Z,23.30
2018-08-18T10:22:32.462Z,23.30
2018-08-18T10:25:06.754Z,23.40
2018-08-18T10:27:41.063Z,23.70
2018-08-18T10:30:15.404Z,23.80
2018-08-18T10:32:54.362Z,23.90
2018-08-18T10:35:31.325Z,24.10
2018-08-18T10:38:06.374Z,24.20
2018-08-18T10:40:40.528Z,24.10
2018-08-18T10:43:14.998Z,23.80
2018-08-18T10:45:49.334Z,24.30
2018-08-18T10:48:23.769Z,24.20
2018-08-18T10:51:38.607Z,24.10
2018-08-18T10:54:12.810Z,24.20
2018-08-18T10:56:47.031Z,24.10
2018-08-18T10:59:31.420Z,24.30
2018-08-18T11:02:07.101Z,24.30
2018-08-18T11:04:41.334Z,24.50
2018-08-18T11:07:15.889Z,24.70
2018-08-18T11:09:50.334Z,24.60
2018-08-18T11:12:24.535Z,24.50
2018-08-18T11:15:00.082Z,24.40
2018-08-18T11:17:34.434Z,24.60
2018-08-18T11:20:13.990Z,24.50
2018-08-18T11:22:50.713Z,24.50
2018-08-18T11:25:27.259Z,24.60
2018-08-18T11:28:01.777Z,24.70
2018-08-18T11:30:35.953Z,25.00
2018-08-18T11:33:10.257Z,25.30
2018-08-18T11:35:44.558Z,25.60
2018-08-18T11:38:18.981Z,25.70
2018-08-18T11:40:53.290Z,25.70
2018-08-18T11:43:27.851Z,25.60
2018-08-18T11:46:02.014Z,25.60
2018-08-18T11:48:36.442Z,25.90
2018-08-18T11:51:10.598Z,25.90
2018-08-18T11:53:56.858Z,26.10
2018-08-18T11:56:37.606Z,25.90
2018-08-18T11:59:14.933Z,25.90
2018-08-18T12:01:51.204Z,26.00
2018-08-18T12:04:25.398Z,25.90
2018-08-18T12:06:59.798Z,26.00
2018-08-18T12:09:34.016Z,26.40
2018-08-18T12:12:08.221Z,26.40
2018-08-18T12:14:42.433Z,26.30
2018-08-18T12:17:16.705Z,26.30
2018-08-18T12:19:54.265Z,26.50
2018-08-18T12:22:28.438Z,26.40
2018-08-18T12:25:02.829Z,26.40
2018-08-18T12:27:37.118Z,26.60
2018-08-18T12:30:23.210Z,26.40
2018-08-18T12:32:57.642Z,26.40
2018-08-18T12:35:32.870Z,26.30
2018-08-18T12:38:07.066Z,26.30
2018-08-18T12:40:41.421Z,26.30
2018-08-18T12:43:17.350Z,26.70
2018-08-18T12:45:55.570Z,26.90
2018-08-18T12:48:29.898Z,27.00
2018-08-18T12:51:05.070Z,27.00
2018-08-18T12:53:44.533Z,27.00
2018-08-18T12:56:20.543Z,27.00
2018-08-18T12:58:54.731Z,27.20
2018-08-18T13:01:42.574Z,27.00
2018-08-18T13:04:18.837Z,27.10
2018-08-18T13:06:53.467Z,27.30
2018-08-18T13:09:28.186Z,27.50
2018-08-18T13:12:02.476Z,27.70
2018-08-18T13:14:36.762Z,27.20
2018-08-18T13:17:11.003Z,27.20
2018-08-18T13:19:45.305Z,27.40
2018-08-18T13:22:19.617Z,27.60
2018-08-18T13:24:53.902Z,27.80
2018-08-18T13:27:28.307Z,27.80
2018-08-18T13:30:02.618Z,27.60
2018-08-18T13:32:37.086Z,27.80
2018-08-18T13:35:11.414Z,27.90
2018-08-18T13:37:45.685Z,28.10
2018-08-18T13:40:23.440Z,28.10
2018-08-18T13:42:57.758Z,27.90
2018-08-18T13:45:46.930Z,28.10
2018-08-18T13:48:21.135Z,28.20
2018-08-18T13:50:55.450Z,28.30
2018-08-18T13:53:32.655Z,28.50
2018-08-18T13:56:08.231Z,28.40
2018-08-18T13:58:42.543Z,28.20
2018-08-18T14:01:28.895Z,28.30
2018-08-18T14:04:03.361Z,28.40
2018-08-18T14:06:43.209Z,28.30
2018-08-18T14:09:17.394Z,28.00
2018-08-18T14:11:56.915Z,28.30
2018-08-18T14:14:31.078Z,28.60
2018-08-18T14:17:05.394Z,28.60
2018-08-18T14:19:39.815Z,28.30
2018-08-18T14:22:17.377Z,28.30
2018-08-18T14:24:51.701Z,28.60
2018-08-18T14:27:26.149Z,28.90
2018-08-18T14:30:00.477Z,28.90
2018-08-18T14:32:34.832Z,28.60
2018-08-18T14:35:09.042Z,28.50
2018-08-18T14:37:43.512Z,28.50
2018-08-18T14:40:18.657Z,27.70
2018-08-18T14:42:53.034Z,28.30
2018-08-18T14:45:27.360Z,28.40
2018-08-18T14:48:01.648Z,28.40
2018-08-18T14:50:35.788Z,28.30
2018-08-18T14:53:15.602Z,28.30
2018-08-18T14:55:49.755Z,28.90
2018-08-18T14:58:29.714Z,28.20
2018-08-18T15:01:10.923Z,28.60
2018-08-18T15:03:45.100Z,28.60
2018-08-18T15:06:19.495Z,28.30
2018-08-18T15:08:53.896Z,28.50
2018-08-18T15:11:28.279Z,28.40
2018-08-18T15:14:02.510Z,28.60
2018-08-18T15:16:36.722Z,28.40
2018-08-18T15:19:11.174Z,28.40
2018-08-18T15:21:45.446Z,28.30
2018-08-18T15:24:19.785Z,28.30
2018-08-18T15:26:54.019Z,27.70
2018-08-18T15:29:28.361Z,27.70
2018-08-18T15:32:02.496Z,27.80
2018-08-18T15:34:36.822Z,27.70
2018-08-18T15:37:11.222Z,27.50
2018-08-18T15:39:45.514Z,27.70
2018-08-18T15:42:19.783Z,27.70
2018-08-18T15:45:00.034Z,27.80
2018-08-18T15:47:34.967Z,27.70
2018-08-18T15:50:09.202Z,27.70
2018-08-18T15:52:43.503Z,28.10
2018-08-18T15:55:17.943Z,28.00
2018-08-18T15:57:52.082Z,27.70
2018-08-18T16:00:33.716Z,27.60
2018-08-18T16:03:08.126Z,27.50
2018-08-18T16:05:42.410Z,27.50
2018-08-18T16:08:16.679Z,27.50
2018-08-18T16:10:51.022Z,27.40
2018-08-18T16:13:25.417Z,27.20
2018-08-18T16:15:59.649Z,27.30
2018-08-18T16:18:33.929Z,27.20
2018-08-18T16:21:19.138Z,26.80
2018-08-18T16:23:53.558Z,26.70
2018-08-18T16:26:27.826Z,26.60
2018-08-18T16:29:02.106Z,26.50
2018-08-18T16:31:36.423Z,26.60
2018-08-18T16:34:10.676Z,26.60
2018-08-18T16:36:46.810Z,26.80
2018-08-18T16:39:21.151Z,27.00
2018-08-18T16:41:55.478Z,26.90
2018-08-18T16:44:29.739Z,26.70
2018-08-18T16:47:04.642Z,27.00
2018-08-18T16:49:38.885Z,26.80
2018-08-18T16:52:13.111Z,26.90
2018-08-18T16:54:47.425Z,26.90
2018-08-18T16:57:21.701Z,26.80
2018-08-18T16:59:55.974Z,26.80
2018-08-18T17:02:35.130Z,27.00
2018-08-18T17:05:09.830Z,27.00
2018-08-18T17:07:44.233Z,26.60
2018-08-18T17:10:18.601Z,26.80
2018-08-18T17:12:52.900Z,26.30
2018-08-18T17:15:27.222Z,26.60
2018-08-18T17:18:01.532Z,26.60
2018-08-18T17:20:35.909Z,26.30
2018-08-18T17:23:10.210Z,26.20
2018-08-18T17:25:44.378Z,26.30
2018-08-18T17:28:18.738Z,26.10
2018-08-18T17:30:53.354Z,26.10
2018-08-18T17:33:28.242Z,25.90
2018-08-18T17:36:02.490Z,26.00
2018-08-18T17:38:36.808Z,25.60
2018-08-18T17:41:11.170Z,25.60
2018-08-18T17:43:45.486Z,25.70
2018-08-18T17:46:19.849Z,25.60
2018-08-18T17:48:54.168Z,25.40
2018-08-18T17:51:28.477Z,25.60
2018-08-18T17:54:02.862Z,25.60
2018-08-18T17:56:37.139Z,25.60
2018-08-18T17:59:11.418Z,25.50
2018-08-18T18:01:57.173Z,25.50
2018-08-18T18:04:31.366Z,25.50
2018-08-18T18:07:06.050Z,25.50
2018-08-18T18:09:40.452Z,25.30
2018-08-18T18:12:21.031Z,25.30
2018-08-18T18:14:55.741Z,25.30
2018-08-18T18:17:29.934Z,25.20
2018-08-18T18:20:04.348Z,25.20
2018-08-18T18:22:45.713Z,25.30
2018-08-18T18:25:21.211Z,25.20
2018-08-18T18:27:55.586Z,25.10
2018-08-18T18:30:29.949Z,25.00
2018-08-18T18:33:04.298Z,24.90
2018-08-18T18:35:38.473Z,24.80
2018-08-18T18:38:12.803Z,24.90
2018-08-18T18:40:47.083Z,24.80
2018-08-18T18:43:21.387Z,24.60
2018-08-18T18:45:55.751Z,24.60
2018-08-18T18:48:29.971Z,24.60
2018-08-18T18:51:04.427Z,24.40
2018-08-18T18:53:46.105Z,24.40
2018-08-18T18:56:20.617Z,24.30
2018-08-18T18:58:54.924Z,24.20
2018-08-18T19:01:29.287Z,24.00
2018-08-18T19:04:03.418Z,24.10
2018-08-18T19:06:52.497Z,24.10
2018-08-18T19:09:26.792Z,24.00
2018-08-18T19:12:01.022Z,24.00
2018-08-18T19:14:35.295Z,24.00
2018-08-18T19:17:09.617Z,24.00
2018-08-18T19:19:43.985Z,23.90
2018-08-18T19:22:18.297Z,23.90
2018-08-18T19:24:52.634Z,23.80
2018-08-18T19:27:26.926Z,23.60
2018-08-18T19:30:01.223Z,23.60
2018-08-18T19:32:35.603Z,23.60
2018-08-18T19:35:10.223Z,23.50
2018-08-18T19:37:50.138Z,23.50
2018-08-18T19:40:24.354Z,23.40
2018-08-18T19:42:58.639Z,23.30
2018-08-18T19:45:32.842Z,23.30
2018-08-18T19:48:07.410Z,23.20
2018-08-18T19:50:52.544Z,23.00
2018-08-18T19:53:30.671Z,23.00
2018-08-18T19:56:08.216Z,23.10
2018-08-18T19:58:42.361Z,23.10
2018-08-18T20:01:16.766Z,23.10
2018-08-18T20:03:51.669Z,23.00
2018-08-18T20:06:25.893Z,22.90
2018-08-18T20:09:00.306Z,22.80
2018-08-18T20:11:34.769Z,22.70
2018-08-18T20:14:09.022Z,22.70
2018-08-18T20:16:43.291Z,22.60
2018-08-18T20:19:17.587Z,22.50
2018-08-18T20:21:52.102Z,22.50
2018-08-18T20:24:26.367Z,22.40
2018-08-18T20:27:00.543Z,22.40
2018-08-18T20:29:34.867Z,22.40
2018-08-18T20:32:09.042Z,22.30
2018-08-18T20:34:43.395Z,22.20
2018-08-18T20:37:17.613Z,22.10
2018-08-18T20:39:51.979Z,22.10
2018-08-18T20:42:31.944Z,22.00
2018-08-18T20:45:06.162Z,21.90
2018-08-18T20:47:41.934Z,21.90
2018-08-18T20:50:16.089Z,21.90
2018-08-18T20:52:52.278Z,21.90
2018-08-18T20:55:26.607Z,21.90
2018-08-18T20:58:01.009Z,21.70
2018-08-18T21:00:35.925Z,21.70
2018-08-18T21:03:10.794Z,21.60
2018-08-18T21:05:45.178Z,21.60
2018-08-18T21:08:20.061Z,21.60
2018-08-18T21:10:54.275Z,21.50
2018-08-18T21:13:28.549Z,21.50
2018-08-18T21:16:02.766Z,21.50
2018-08-18T21:18:37.034Z,21.40
2018-08-18T21:21:24.986Z,21.30
2018-08-18T21:23:59.257Z,21.30
2018-08-18T21:26:33.721Z,21.20
2018-08-18T21:29:08.011Z,21.20
2018-08-18T21:31:42.340Z,21.10
2018-08-18T21:34:16.724Z,21.10
2018-08-18T21:36:50.938Z,21.10
2018-08-18T21:39:25.222Z,21.10
2018-08-18T21:41:59.526Z,21.00
2018-08-18T21:44:33.826Z,21.00
2018-08-18T21:47:08.170Z,21.00
2018-08-18T21:49:43.603Z,20.90
2018-08-18T21:52:17.957Z,20.90
2018-08-18T21:54:52.327Z,20.90
2018-08-18T21:57:26.730Z,20.80
2018-08-18T22:00:00.902Z,20.80
2018-08-18T22:02:41.406Z,20.80
2018-08-18T22:05:15.619Z,20.80
2018-08-18T22:07:51.910Z,20.80
2018-08-18T22:10:26.103Z,20.70
2018-08-18T22:13:00.384Z,20.60
2018-08-18T22:15:34.605Z,20.70
2018-08-18T22:18:08.933Z,20.60
2018-08-18T22:20:43.362Z,20.60
2018-08-18T22:23:17.605Z,20.60
2018-08-18T22:25:51.941Z,20.50
2018-08-18T22:28:26.197Z,20.60
2018-08-18T22:31:00.422Z,20.10
2018-08-18T22:33:38.860Z,20.30
2018-08-18T22:36:13.270Z,20.30
2018-08-18T22:38:47.648Z,20.40
2018-08-18T22:41:22.184Z,20.40
2018-08-18T22:43:57.284Z,20.40
2018-08-18T22:46:31.602Z,20.30
2018-08-18T22:49:06.066Z,20.30
2018-08-18T22:51:40.392Z,20.30
2018-08-18T22:54:14.650Z,20.00
2018-08-18T22:56:54.509Z,20.00
2018-08-18T22:59:28.982Z,20.00
2018-08-18T23:02:03.317Z,19.60
2018-08-18T23:04:38.688Z,19.90
2018-08-18T23:07:12.963Z,19.70
2018-08-18T23:09:47.262Z,20.00
2018-08-18T23:12:21.493Z,20.00
2018-08-18T23:14:55.710Z,20.00
2018-08-18T23:17:29.949Z,20.00
2018-08-18T23:20:04.538Z,20.00
2018-08-18T23:22:52.749Z,19.80
2018-08-18T23:25:28.481Z,19.90
2018-08-18T23:28:02.631Z,19.90
2018-08-18T23:30:37.626Z,19.80
2018-08-18T23:33:11.809Z,19.80
2018-08-18T23:35:46.081Z,19.80
2018-08-18T23:38:20.426Z,19.80
2018-08-18T23:40:59.088Z,19.80
2018-08-18T23:43:33.235Z,19.70
2018-08-18T23:46:07.445Z,19.60
2018-08-18T23:48:41.757Z,19.70
2018-08-18T23:51:16.155Z,19.60
2018-08-18T23:53:50.415Z,19.60
2018-08-18T23:56:28.514Z,19.50
2018-08-18T23:59:02.878Z,19.50
